Wetterdaten: Woche 03.11.25 - 09.11.25 (KW45)
Datum Zeit Temp. Aussen Temp. o. S. Temp +5cm Feuchte Auss Luftdruck Regen Sonnenschein Regendauer Solar Windböen Empfang
03.11.2025 00:00 8,4 °C 7,4 °C 4,2 °C 94 % 1015,6 hPa 0,0 l/m² 0,00 h 0,00 h 0 W/m² 8,3 km/h (2 Bft) 98,33 %
03.11.2025 01:00 7,9 °C 6,9 °C 3,8 °C 95 % 1016,3 hPa 0,0 l/m² 0,00 h 0,00 h 0 W/m² 9,1 km/h (2 Bft) 97,29 %
03.11.2025 02:00 7,5 °C 6,7 °C 3,3 °C 95 % 1016,7 hPa 0,0 l/m² 0,00 h 0,00 h 0 W/m² 10,9 km/h (2 Bft) 97,02 %
03.11.2025 03:00 7,2 °C 6,2 °C 3,2 °C 96 % 1016,8 hPa 0,0 l/m² 0,00 h 0,00 h 0 W/m² 11,1 km/h (2 Bft) 98,25 %
03.11.2025 04:00 6,7 °C 5,8 °C 2,8 °C 96 % 1017,1 hPa 0,0 l/m² 0,00 h 0,00 h 0 W/m² 11,3 km/h (2 Bft) 95,37 %
03.11.2025 05:00 6,5 °C 5,7 °C 2,8 °C 96 % 1017,5 hPa 0,0 l/m² 0,00 h 0,00 h 0 W/m² 8,9 km/h (2 Bft) 98,47 %
03.11.2025 06:00 6,5 °C 5,6 °C 2,8 °C 96 % 1018,1 hPa 0,0 l/m² 0,00 h 0,00 h 0 W/m² 8,2 km/h (2 Bft) 95,85 %
03.11.2025 07:00 6,5 °C 5,8 °C 2,8 °C 96 % 1018,5 hPa 0,0 l/m² 0,00 h 0,00 h 9 W/m² 8,2 km/h (2 Bft) 98,78 %
03.11.2025 08:00 6,6 °C 6,3 °C 3,0 °C 96 % 1019,0 hPa 0,2 l/m² 0,00 h 0,00 h 26 W/m² 10,5 km/h (2 Bft) 97,24 %
03.11.2025 09:00 7,8 °C 9,1 °C 4,4 °C 97 % 1019,2 hPa 0,0 l/m² 0,17 h 0,00 h 89 W/m² 13,9 km/h (3 Bft) 97,02 %
03.11.2025 10:00 10,2 °C 12,1 °C 6,8 °C 90 % 1019,3 hPa 0,0 l/m² 0,53 h 0,00 h 211 W/m² 19,1 km/h (3 Bft) 98,70 %
03.11.2025 11:00 11,4 °C 12,4 °C 7,7 °C 86 % 1019,3 hPa 0,0 l/m² 0,30 h 0,00 h 181 W/m² 18,5 km/h (3 Bft) 97,46 %
03.11.2025 12:00 13,0 °C 14,8 °C 9,1 °C 82 % 1018,9 hPa 0,0 l/m² 0,73 h 0,00 h 260 W/m² 22,1 km/h (4 Bft) 95,75 %
03.11.2025 13:00 13,2 °C 13,0 °C 9,0 °C 80 % 1018,7 hPa 0,0 l/m² 0,03 h 0,00 h 114 W/m² 20,7 km/h (4 Bft) 99,29 %
03.11.2025 14:00 13,5 °C 13,2 °C 9,2 °C 80 % 1018,9 hPa 0,0 l/m² 0,00 h 0,00 h 105 W/m² 22,1 km/h (4 Bft) 95,95 %
03.11.2025 15:00 13,5 °C 13,1 °C 8,9 °C 80 % 1019,1 hPa 0,0 l/m² 0,00 h 0,00 h 74 W/m² 28,0 km/h (4 Bft) 97,59 %
03.11.2025 16:00 12,9 °C 12,2 °C 8,2 °C 82 % 1019,4 hPa 0,0 l/m² 0,00 h 0,00 h 23 W/m² 25,2 km/h (4 Bft) 97,46 %
03.11.2025 17:00 12,2 °C 11,7 °C 7,8 °C 84 % 1019,7 hPa 0,0 l/m² 0,00 h 0,00 h 0 W/m² 24,7 km/h (4 Bft) 98,18 %
03.11.2025 18:00 12,0 °C 11,1 °C 7,4 °C 86 % 1020,0 hPa 0,0 l/m² 0,00 h 0,00 h 0 W/m² 21,1 km/h (4 Bft) 97,00 %
03.11.2025 19:00 11,8 °C 11,1 °C 7,2 °C 87 % 1020,1 hPa 0,0 l/m² 0,00 h 0,00 h 0 W/m² 13,2 km/h (3 Bft) 98,13 %
03.11.2025 20:00 11,6 °C 11,1 °C 7,2 °C 89 % 1020,3 hPa 0,0 l/m² 0,00 h 0,00 h 0 W/m² 12,1 km/h (2 Bft) 96,96 %
03.11.2025 21:00 11,7 °C 11,1 °C 7,2 °C 90 % 1020,4 hPa 0,0 l/m² 0,00 h 0,00 h 0 W/m² 10,3 km/h (2 Bft) 97,71 %
03.11.2025 22:00 11,8 °C 11,1 °C 7,2 °C 90 % 1020,3 hPa 0,0 l/m² 0,00 h 0,00 h 0 W/m² 7,9 km/h (2 Bft) 97,11 %
03.11.2025 23:00 12,2 °C 11,6 °C 7,7 °C 91 % 1020,4 hPa 0,0 l/m² 0,00 h 0,00 h 0 W/m² 10,9 km/h (2 Bft) 96,90 %
04.11.2025 00:00 12,4 °C 11,7 °C 7,8 °C 90 % 1020,3 hPa 0,0 l/m² 0,00 h 0,00 h 0 W/m² 8,1 km/h (2 Bft) 98,92 %
04.11.2025 01:00 12,5 °C 11,7 °C 7,8 °C 90 % 1020,3 hPa 0,0 l/m² 0,00 h 0,00 h 0 W/m² 8,0 km/h (2 Bft) 95,69 %
04.11.2025 02:00 12,4 °C 11,4 °C 7,6 °C 90 % 1020,3 hPa 0,0 l/m² 0,00 h 0,00 h 0 W/m² 4,7 km/h (1 Bft) 97,96 %
04.11.2025 03:00 12,1 °C 11,4 °C 7,5 °C 91 % 1020,2 hPa 0,0 l/m² 0,00 h 0,00 h 0 W/m² 5,6 km/h (1 Bft) 98,34 %
04.11.2025 04:00 12,2 °C 11,7 °C 7,8 °C 92 % 1020,1 hPa 0,0 l/m² 0,00 h 0,00 h 0 W/m² 5,8 km/h (2 Bft) 96,35 %
04.11.2025 05:00 12,3 °C 11,7 °C 7,8 °C 91 % 1020,1 hPa 0,0 l/m² 0,00 h 0,00 h 0 W/m² 8,0 km/h (2 Bft) 97,82 %
04.11.2025 06:00 12,3 °C 11,7 °C 7,8 °C 91 % 1020,0 hPa 0,0 l/m² 0,00 h 0,00 h 0 W/m² 7,9 km/h (2 Bft) 99,02 %
04.11.2025 07:00 12,4 °C 11,7 °C 7,8 °C 90 % 1020,3 hPa 0,0 l/m² 0,00 h 0,00 h 7 W/m² 8,0 km/h (2 Bft) 94,87 %
04.11.2025 08:00 12,7 °C 12,4 °C 8,3 °C 90 % 1020,8 hPa 0,0 l/m² 0,00 h 0,00 h 44 W/m² 8,2 km/h (2 Bft) 99,53 %
04.11.2025 09:00 13,5 °C 13,7 °C 9,3 °C 87 % 1021,0 hPa 0,0 l/m² 0,27 h 0,00 h 102 W/m² 11,0 km/h (2 Bft) 96,86 %
04.11.2025 10:00 14,4 °C 17,1 °C 10,0 °C 85 % 1021,0 hPa 0,0 l/m² 0,47 h 0,00 h 211 W/m² 13,3 km/h (3 Bft) 97,02 %
04.11.2025 11:00 16,2 °C 20,7 °C 11,2 °C 78 % 1020,9 hPa 0,0 l/m² 0,80 h 0,00 h 294 W/m² 18,6 km/h (3 Bft) 98,04 %
04.11.2025 12:00 17,0 °C 21,9 °C 11,8 °C 73 % 1020,2 hPa 0,0 l/m² 1,00 h 0,00 h 384 W/m² 24,1 km/h (4 Bft) 97,86 %
04.11.2025 13:00 16,9 °C 18,4 °C 12,0 °C 73 % 1019,5 hPa 0,0 l/m² 1,00 h 0,00 h 264 W/m² 20,9 km/h (4 Bft) 97,09 %
04.11.2025 14:00 16,4 °C 16,8 °C 11,7 °C 75 % 1019,1 hPa 0,0 l/m² 1,00 h 0,00 h 208 W/m² 19,7 km/h (3 Bft) 97,91 %
04.11.2025 15:00 16,0 °C 15,3 °C 10,9 °C 75 % 1018,7 hPa 0,0 l/m² 0,13 h 0,00 h 86 W/m² 18,9 km/h (3 Bft) 97,05 %
04.11.2025 16:00 15,0 °C 14,0 °C 10,0 °C 78 % 1018,3 hPa 0,0 l/m² 0,00 h 0,00 h 28 W/m² 16,5 km/h (3 Bft) 98,25 %
04.11.2025 17:00 14,1 °C 13,1 °C 9,2 °C 80 % 1018,1 hPa 0,0 l/m² 0,00 h 0,00 h 0 W/m² 17,2 km/h (3 Bft) 96,55 %
04.11.2025 18:00 13,5 °C 12,5 °C 8,8 °C 82 % 1017,9 hPa 0,0 l/m² 0,00 h 0,00 h 0 W/m² 16,2 km/h (3 Bft) 99,00 %
04.11.2025 19:00 13,0 °C 12,2 °C 8,3 °C 83 % 1017,6 hPa 0,0 l/m² 0,00 h 0,00 h 0 W/m² 15,2 km/h (3 Bft) 95,73 %
04.11.2025 20:00 12,6 °C 11,8 °C 8,0 °C 84 % 1017,2 hPa 0,0 l/m² 0,00 h 0,00 h 0 W/m² 18,1 km/h (3 Bft) 98,06 %
04.11.2025 21:00 12,1 °C 11,3 °C 7,6 °C 84 % 1017,2 hPa 0,0 l/m² 0,00 h 0,00 h 0 W/m² 18,9 km/h (3 Bft) 94,89 %
04.11.2025 22:00 11,7 °C 10,8 °C 7,2 °C 84 % 1017,3 hPa 0,0 l/m² 0,00 h 0,00 h 0 W/m² 15,8 km/h (3 Bft) 98,47 %
04.11.2025 23:00 11,2 °C 10,2 °C 6,5 °C 84 % 1017,7 hPa 0,0 l/m² 0,00 h 0,00 h 0 W/m² 11,1 km/h (2 Bft) 96,02 %
05.11.2025 00:00 10,5 °C 9,4 °C 6,1 °C 86 % 1017,5 hPa 0,0 l/m² 0,00 h 0,00 h 0 W/m² 11,2 km/h (2 Bft) 96,94 %
05.11.2025 01:00 10,1 °C 9,4 °C 5,6 °C 86 % 1017,4 hPa 0,0 l/m² 0,00 h 0,00 h 0 W/m² 8,7 km/h (2 Bft) 99,01 %
05.11.2025 02:00 9,9 °C 9,2 °C 5,6 °C 86 % 1017,4 hPa 0,0 l/m² 0,00 h 0,00 h 0 W/m² 13,1 km/h (3 Bft) 96,84 %
05.11.2025 03:00 9,7 °C 8,9 °C 5,4 °C 86 % 1017,2 hPa 0,0 l/m² 0,00 h 0,00 h 0 W/m² 15,7 km/h (3 Bft) 96,98 %
05.11.2025 04:00 9,5 °C 8,7 °C 5,0 °C 86 % 1017,1 hPa 0,0 l/m² 0,00 h 0,00 h 0 W/m² 15,3 km/h (3 Bft) 97,57 %
05.11.2025 05:00 9,4 °C 8,6 °C 5,0 °C 86 % 1017,4 hPa 0,0 l/m² 0,00 h 0,00 h 0 W/m² 16,8 km/h (3 Bft) 96,34 %
05.11.2025 06:00 9,1 °C 8,1 °C 4,6 °C 85 % 1017,4 hPa 0,0 l/m² 0,00 h 0,00 h 0 W/m² 16,8 km/h (3 Bft) 97,44 %
05.11.2025 07:00 8,7 °C 7,8 °C 4,4 °C 86 % 1017,6 hPa 0,0 l/m² 0,00 h 0,00 h 9 W/m² 17,4 km/h (3 Bft) 99,16 %
05.11.2025 08:00 9,1 °C 9,0 °C 5,1 °C 85 % 1017,7 hPa 0,0 l/m² 0,00 h 0,00 h 45 W/m² 16,7 km/h (3 Bft) 95,59 %
05.11.2025 09:00 10,4 °C 10,5 °C 6,2 °C 81 % 1017,8 hPa 0,0 l/m² 0,13 h 0,00 h 83 W/m² 18,2 km/h (3 Bft) 98,78 %
05.11.2025 10:00 11,8 °C 15,1 °C 7,5 °C 78 % 1017,9 hPa 0,0 l/m² 0,97 h 0,00 h 239 W/m² 21,9 km/h (4 Bft) 97,70 %
05.11.2025 11:00 13,0 °C 14,1 °C 8,6 °C 74 % 1017,5 hPa 0,0 l/m² 0,20 h 0,00 h 163 W/m² 16,3 km/h (3 Bft) 95,74 %
05.11.2025 12:00 13,7 °C 15,5 °C 9,6 °C 74 % 1017,0 hPa 0,0 l/m² 0,70 h 0,00 h 230 W/m² 14,4 km/h (3 Bft) 97,86 %
05.11.2025 13:00 14,4 °C 15,3 °C 9,6 °C 73 % 1016,2 hPa 0,0 l/m² 0,45 h 0,00 h 208 W/m² 15,9 km/h (3 Bft) 98,56 %
05.11.2025 14:00 15,8 °C 19,2 °C 10,5 °C 70 % 1015,6 hPa 0,0 l/m² 1,02 h 0,00 h 281 W/m² 13,9 km/h (3 Bft) 95,29 %
05.11.2025 15:00 16,5 °C 15,3 °C 10,4 °C 67 % 1015,3 hPa 0,0 l/m² 0,48 h 0,00 h 113 W/m² 13,4 km/h (3 Bft) 98,04 %
05.11.2025 16:00 15,1 °C 13,7 °C 9,3 °C 70 % 1015,1 hPa 0,0 l/m² 0,00 h 0,00 h 16 W/m² 7,1 km/h (2 Bft) 97,24 %
05.11.2025 17:00 13,8 °C 12,4 °C 8,2 °C 74 % 1014,7 hPa 0,0 l/m² 0,00 h 0,00 h 0 W/m² 7,1 km/h (2 Bft) 97,48 %
05.11.2025 18:00 13,1 °C 12,1 °C 8,0 °C 76 % 1014,5 hPa 0,0 l/m² 0,00 h 0,00 h 0 W/m² 10,9 km/h (2 Bft) 98,32 %
05.11.2025 19:00 12,6 °C 11,5 °C 7,6 °C 76 % 1014,2 hPa 0,0 l/m² 0,00 h 0,00 h 0 W/m² 10,4 km/h (2 Bft) 96,14 %
05.11.2025 20:00 11,9 °C 10,8 °C 6,9 °C 77 % 1014,2 hPa 0,0 l/m² 0,00 h 0,00 h 0 W/m² 8,7 km/h (2 Bft) 98,50 %
05.11.2025 21:00 11,4 °C 10,6 °C 6,7 °C 77 % 1013,7 hPa 0,0 l/m² 0,00 h 0,00 h 0 W/m² 13,6 km/h (3 Bft) 95,70 %
05.11.2025 22:00 11,6 °C 10,6 °C 6,8 °C 74 % 1013,2 hPa 0,0 l/m² 0,00 h 0,00 h 0 W/m² 15,2 km/h (3 Bft) 96,10 %
05.11.2025 23:00 11,2 °C 10,2 °C 6,4 °C 74 % 1013,3 hPa 0,0 l/m² 0,00 h 0,00 h 0 W/m² 10,7 km/h (2 Bft) 99,72 %
06.11.2025 00:00 10,7 °C 9,8 °C 5,9 °C 76 % 1013,2 hPa 0,0 l/m² 0,00 h 0,00 h 0 W/m² 11,2 km/h (2 Bft) 97,37 %
06.11.2025 01:00 10,2 °C 9,1 °C 5,5 °C 78 % 1012,8 hPa 0,0 l/m² 0,00 h 0,00 h 0 W/m² 9,9 km/h (2 Bft) 97,94 %
06.11.2025 02:00 9,6 °C 8,4 °C 4,9 °C 81 % 1012,4 hPa 0,0 l/m² 0,00 h 0,00 h 0 W/m² 7,3 km/h (2 Bft) 96,06 %
06.11.2025 03:00 9,0 °C 7,9 °C 4,4 °C 84 % 1012,0 hPa 0,0 l/m² 0,00 h 0,00 h 0 W/m² 6,4 km/h (2 Bft) 97,34 %
06.11.2025 04:00 8,7 °C 7,8 °C 4,3 °C 86 % 1011,7 hPa 0,0 l/m² 0,00 h 0,00 h 0 W/m² 10,1 km/h (2 Bft) 97,00 %
06.11.2025 05:00 8,5 °C 7,6 °C 4,0 °C 88 % 1011,4 hPa 0,0 l/m² 0,00 h 0,00 h 0 W/m² 12,2 km/h (2 Bft) 96,84 %
06.11.2025 06:00 8,4 °C 7,8 °C 4,0 °C 90 % 1010,7 hPa 0,0 l/m² 0,00 h 0,00 h 0 W/m² 11,2 km/h (2 Bft) 98,61 %
06.11.2025 07:00 8,3 °C 7,6 °C 3,9 °C 90 % 1010,7 hPa 0,0 l/m² 0,00 h 0,00 h 8 W/m² 13,9 km/h (3 Bft) 94,90 %
06.11.2025 08:00 8,5 °C 8,1 °C 4,3 °C 89 % 1010,8 hPa 0,0 l/m² 0,00 h 0,00 h 38 W/m² 15,7 km/h (3 Bft) 96,92 %
06.11.2025 09:00 9,6 °C 10,0 °C 5,4 °C 87 % 1010,9 hPa 0,0 l/m² 0,30 h 0,00 h 96 W/m² 17,7 km/h (3 Bft) 97,31 %
06.11.2025 10:00 11,2 °C 14,0 °C 7,0 °C 83 % 1010,6 hPa 0,0 l/m² 1,00 h 0,00 h 226 W/m² 17,1 km/h (3 Bft) 97,00 %
06.11.2025 11:00 12,8 °C 15,3 °C 8,6 °C 78 % 1010,4 hPa 0,0 l/m² 0,57 h 0,00 h 221 W/m² 14,0 km/h (3 Bft) 96,19 %
06.11.2025 12:00 13,4 °C 14,9 °C 9,0 °C 77 % 1010,1 hPa 0,0 l/m² 0,50 h 0,00 h 206 W/m² 11,8 km/h (2 Bft) 97,99 %
06.11.2025 13:00 14,1 °C 15,2 °C 9,4 °C 75 % 1009,7 hPa 0,0 l/m² 0,30 h 0,00 h 171 W/m² 7,2 km/h (2 Bft) 97,84 %
06.11.2025 14:00 14,1 °C 14,5 °C 9,2 °C 75 % 1009,2 hPa 0,0 l/m² 0,27 h 0,00 h 133 W/m² 8,3 km/h (2 Bft) 96,99 %
06.11.2025 15:00 14,3 °C 13,9 °C 9,2 °C 75 % 1009,1 hPa 0,0 l/m² 0,43 h 0,00 h 91 W/m² 9,8 km/h (2 Bft) 96,80 %
06.11.2025 16:00 13,5 °C 12,2 °C 8,1 °C 77 % 1008,8 hPa 0,0 l/m² 0,00 h 0,00 h 18 W/m² 7,8 km/h (2 Bft) 99,10 %
06.11.2025 17:00 12,3 °C 11,1 °C 7,2 °C 78 % 1009,0 hPa 0,0 l/m² 0,00 h 0,00 h 0 W/m² 6,8 km/h (2 Bft) 96,43 %
06.11.2025 18:00 11,6 °C 10,4 °C 6,5 °C 81 % 1009,3 hPa 0,0 l/m² 0,00 h 0,00 h 0 W/m² 5,9 km/h (2 Bft) 97,71 %
06.11.2025 19:00 10,7 °C 9,4 °C 5,8 °C 84 % 1009,6 hPa 0,0 l/m² 0,00 h 0,00 h 0 W/m² 7,9 km/h (2 Bft) 96,10 %
06.11.2025 20:00 10,1 °C 9,2 °C 5,5 °C 86 % 1009,8 hPa 0,0 l/m² 0,00 h 0,00 h 0 W/m² 9,4 km/h (2 Bft) 98,48 %
06.11.2025 21:00 9,7 °C 8,8 °C 5,2 °C 88 % 1010,2 hPa 0,0 l/m² 0,00 h 0,00 h 0 W/m² 12,5 km/h (3 Bft) 96,23 %
06.11.2025 22:00 9,9 °C 9,4 °C 5,6 °C 89 % 1010,5 hPa 0,0 l/m² 0,00 h 0,00 h 0 W/m² 11,1 km/h (2 Bft) 98,01 %
06.11.2025 23:00 10,1 °C 9,4 °C 5,6 °C 88 % 1010,5 hPa 0,0 l/m² 0,00 h 0,00 h 0 W/m² 10,6 km/h (2 Bft) 97,71 %
07.11.2025 00:00 9,7 °C 8,7 °C 5,2 °C 88 % 1010,5 hPa 0,0 l/m² 0,00 h 0,00 h 0 W/m² 12,6 km/h (3 Bft) 91,71 %
07.11.2025 01:00 9,0 °C 8,0 °C 4,6 °C 89 % 1010,5 hPa 0,0 l/m² 0,00 h 0,00 h 0 W/m² 9,9 km/h (2 Bft) 97,94 %
07.11.2025 02:00 8,7 °C 8,1 °C 4,6 °C 90 % 1010,6 hPa 0,0 l/m² 0,00 h 0,00 h 0 W/m² 7,7 km/h (2 Bft) 98,04 %
07.11.2025 03:00 8,8 °C 8,3 °C 4,8 °C 90 % 1010,4 hPa 0,0 l/m² 0,00 h 0,00 h 0 W/m² 10,1 km/h (2 Bft) 94,42 %
07.11.2025 04:00 8,7 °C 7,8 °C 4,4 °C 89 % 1010,2 hPa 0,0 l/m² 0,00 h 0,00 h 0 W/m² 8,8 km/h (2 Bft) 98,24 %
07.11.2025 05:00 8,0 °C 6,9 °C 3,5 °C 90 % 1010,1 hPa 0,0 l/m² 0,00 h 0,00 h 0 W/m² 8,0 km/h (2 Bft) 96,79 %
07.11.2025 06:00 7,2 °C 6,1 °C 2,9 °C 91 % 1010,0 hPa 0,0 l/m² 0,00 h 0,00 h 0 W/m² 8,7 km/h (2 Bft) 96,93 %
07.11.2025 07:00 6,8 °C 6,1 °C 2,8 °C 92 % 1010,4 hPa 0,0 l/m² 0,00 h 0,00 h 8 W/m² 9,4 km/h (2 Bft) 98,72 %
07.11.2025 08:00 6,8 °C 6,5 °C 3,0 °C 93 % 1010,8 hPa 0,0 l/m² 0,00 h 0,00 h 27 W/m² 8,8 km/h (2 Bft) 96,97 %
07.11.2025 09:00 7,9 °C 8,7 °C 4,2 °C 92 % 1010,9 hPa 0,0 l/m² 0,20 h 0,00 h 85 W/m² 9,0 km/h (2 Bft) 98,09 %
07.11.2025 10:00 10,2 °C 17,3 °C 5,6 °C 85 % 1011,1 hPa 0,0 l/m² 1,00 h 0,00 h 272 W/m² 9,8 km/h (2 Bft) 97,44 %
07.11.2025 11:00 12,4 °C 17,8 °C 6,9 °C 79 % 1011,2 hPa 0,0 l/m² 0,60 h 0,00 h 237 W/m² 6,5 km/h (2 Bft) 97,49 %
07.11.2025 12:00 13,9 °C 22,3 °C 8,0 °C 75 % 1010,8 hPa 0,0 l/m² 0,97 h 0,00 h 381 W/m² 7,6 km/h (2 Bft) 95,17 %
07.11.2025 13:00 15,1 °C 19,9 °C 8,8 °C 72 % 1010,5 hPa 0,0 l/m² 1,03 h 0,00 h 346 W/m² 8,3 km/h (2 Bft) 98,77 %
07.11.2025 14:00 15,7 °C 19,5 °C 9,3 °C 71 % 1010,1 hPa 0,0 l/m² 1,00 h 0,00 h 263 W/m² 8,7 km/h (2 Bft) 97,90 %
07.11.2025 15:00 15,8 °C 14,1 °C 9,1 °C 71 % 1010,2 hPa 0,0 l/m² 0,47 h 0,00 h 90 W/m² 6,0 km/h (2 Bft) 96,70 %
07.11.2025 16:00 14,2 °C 12,7 °C 8,1 °C 75 % 1010,3 hPa 0,0 l/m² 0,00 h 0,00 h 16 W/m² 3,3 km/h (1 Bft) 97,79 %
07.11.2025 17:00 12,8 °C 11,0 °C 6,6 °C 78 % 1010,7 hPa 0,0 l/m² 0,00 h 0,00 h 0 W/m² 2,0 km/h (1 Bft) 96,85 %
07.11.2025 18:00 11,5 °C 10,1 °C 5,8 °C 81 % 1010,8 hPa 0,0 l/m² 0,00 h 0,00 h 0 W/m² 2,1 km/h (1 Bft) 98,33 %
07.11.2025 19:00 10,6 °C 9,3 °C 5,6 °C 83 % 1011,2 hPa 0,0 l/m² 0,00 h 0,00 h 0 W/m² 8,8 km/h (2 Bft) 96,42 %
07.11.2025 20:00 9,6 °C 8,3 °C 4,9 °C 85 % 1011,5 hPa 0,0 l/m² 0,00 h 0,00 h 0 W/m² 9,2 km/h (2 Bft) 97,56 %
07.11.2025 21:00 8,5 °C 7,3 °C 3,9 °C 87 % 1011,9 hPa 0,0 l/m² 0,00 h 0,00 h 0 W/m² 9,9 km/h (2 Bft) 98,25 %
07.11.2025 22:00 7,4 °C 6,5 °C 3,2 °C 89 % 1012,1 hPa 0,0 l/m² 0,00 h 0,00 h 0 W/m² 10,5 km/h (2 Bft) 96,69 %
07.11.2025 23:00 6,6 °C 5,7 °C 2,4 °C 91 % 1012,3 hPa 0,0 l/m² 0,00 h 0,00 h 0 W/m² 8,9 km/h (2 Bft) 97,42 %
08.11.2025 00:00 5,9 °C 4,8 °C 1,9 °C 92 % 1012,6 hPa 0,0 l/m² 0,00 h 0,00 h 0 W/m² 8,1 km/h (2 Bft) 96,48 %
08.11.2025 01:00 5,4 °C 4,4 °C 1,3 °C 94 % 1012,7 hPa 0,0 l/m² 0,00 h 0,00 h 0 W/m² 9,8 km/h (2 Bft) 98,89 %
08.11.2025 02:00 5,0 °C 4,1 °C 1,1 °C 95 % 1012,9 hPa 0,0 l/m² 0,00 h 0,00 h 0 W/m² 8,5 km/h (2 Bft) 94,56 %
08.11.2025 03:00 4,7 °C 3,9 °C 0,8 °C 95 % 1012,9 hPa 0,0 l/m² 0,00 h 0,00 h 0 W/m² 11,8 km/h (2 Bft) 99,40 %
08.11.2025 04:00 4,4 °C 3,6 °C 0,6 °C 96 % 1012,8 hPa 0,0 l/m² 0,00 h 0,00 h 0 W/m² 9,2 km/h (2 Bft) 97,31 %
08.11.2025 05:00 4,4 °C 3,7 °C 0,6 °C 96 % 1013,0 hPa 0,0 l/m² 0,00 h 0,00 h 0 W/m² 9,6 km/h (2 Bft) 96,25 %
08.11.2025 06:00 4,6 °C 3,9 °C 0,6 °C 97 % 1013,2 hPa 0,0 l/m² 0,00 h 0,00 h 0 W/m² 11,1 km/h (2 Bft) 98,31 %
08.11.2025 07:00 4,4 °C 3,9 °C 0,6 °C 98 % 1013,7 hPa 0,0 l/m² 0,00 h 0,00 h 6 W/m² 9,2 km/h (2 Bft) 95,32 %
08.11.2025 08:00 4,6 °C 4,2 °C 1,0 °C 98 % 1014,3 hPa 0,0 l/m² 0,00 h 0,00 h 22 W/m² 7,0 km/h (2 Bft) 97,22 %
08.11.2025 09:00 5,2 °C 5,1 °C 1,8 °C 98 % 1014,5 hPa 0,0 l/m² 0,00 h 0,00 h 62 W/m² 7,9 km/h (2 Bft) 96,36 %
08.11.2025 10:00 5,7 °C 6,3 °C 2,7 °C 99 % 1014,6 hPa 0,0 l/m² 0,00 h 0,00 h 111 W/m² 8,1 km/h (2 Bft) 99,30 %
08.11.2025 11:00 6,5 °C 7,4 °C 3,7 °C 99 % 1014,8 hPa 0,0 l/m² 0,00 h 0,00 h 141 W/m² 7,1 km/h (2 Bft) 95,86 %
08.11.2025 12:00 7,5 °C 10,0 °C 4,9 °C 99 % 1014,7 hPa 0,0 l/m² 0,67 h 0,00 h 215 W/m² 6,3 km/h (2 Bft) 98,19 %
08.11.2025 13:00 9,1 °C 13,1 °C 5,4 °C 99 % 1014,6 hPa 0,0 l/m² 0,57 h 0,00 h 218 W/m² 3,1 km/h (1 Bft) 97,23 %
08.11.2025 14:00 9,7 °C 10,3 °C 6,1 °C 97 % 1014,5 hPa 0,0 l/m² 0,00 h 0,00 h 90 W/m² 1,7 km/h (1 Bft) 97,54 %
08.11.2025 15:00 10,1 °C 10,0 °C 6,1 °C 95 % 1014,4 hPa 0,0 l/m² 0,00 h 0,00 h 40 W/m² 3,7 km/h (1 Bft) 97,53 %
08.11.2025 16:00 10,6 °C 10,1 °C 6,0 °C 94 % 1014,5 hPa 0,0 l/m² 0,00 h 0,00 h 19 W/m² 0,5 km/h (0 Bft) 95,70 %
08.11.2025 17:00 10,6 °C 9,8 °C 5,7 °C 93 % 1014,8 hPa 0,0 l/m² 0,00 h 0,00 h 0 W/m² 0,6 km/h (0 Bft) 97,90 %
08.11.2025 18:00 10,4 °C 9,4 °C 5,6 °C 93 % 1015,1 hPa 0,0 l/m² 0,00 h 0,00 h 0 W/m² 0,0 km/h (0 Bft) 97,86 %
08.11.2025 19:00 10,3 °C 9,7 °C 5,6 °C 94 % 1015,3 hPa 0,0 l/m² 0,00 h 0,00 h 0 W/m² 0,0 km/h (0 Bft) 96,59 %
08.11.2025 20:00 10,3 °C 9,4 °C 5,9 °C 94 % 1015,5 hPa 0,0 l/m² 0,00 h 0,00 h 0 W/m² 0,1 km/h (0 Bft) 95,56 %
08.11.2025 21:00 10,3 °C 9,4 °C 5,6 °C 95 % 1016,0 hPa 0,7 l/m² 0,00 h 0,17 h 0 W/m² 0,3 km/h (0 Bft) 98,09 %
08.11.2025 22:00 10,4 °C 9,4 °C 5,6 °C 95 % 1016,0 hPa 0,0 l/m² 0,00 h 0,00 h 0 W/m² 0,0 km/h (0 Bft) 97,60 %
08.11.2025 23:00 10,3 °C 9,1 °C 5,4 °C 96 % 1016,0 hPa 0,0 l/m² 0,00 h 0,00 h 0 W/m² 0,0 km/h (0 Bft) 96,52 %
09.11.2025 00:00 10,3 °C 9,4 °C 5,6 °C 97 % 1016,1 hPa 0,0 l/m² 0,00 h 0,00 h 0 W/m² 0,0 km/h (0 Bft) 98,67 %
09.11.2025 01:00 10,5 °C 9,5 °C 6,0 °C 97 % 1016,1 hPa 0,0 l/m² 0,00 h 0,00 h 0 W/m² 0,0 km/h (0 Bft) 95,11 %
09.11.2025 02:00 10,6 °C 9,7 °C 6,1 °C 98 % 1016,3 hPa 0,0 l/m² 0,00 h 0,00 h 0 W/m² 0,0 km/h (0 Bft) 99,16 %
09.11.2025 03:00 10,3 °C 9,4 °C 5,8 °C 98 % 1016,2 hPa 0,0 l/m² 0,00 h 0,00 h 0 W/m² 0,0 km/h (0 Bft) 97,71 %
09.11.2025 04:00 10,2 °C 9,4 °C 6,1 °C 99 % 1016,3 hPa 0,0 l/m² 0,00 h 0,00 h 0 W/m² 0,0 km/h (0 Bft) 96,13 %
09.11.2025 05:00 10,3 °C 9,4 °C 6,1 °C 99 % 1016,3 hPa 0,0 l/m² 0,00 h 0,00 h 0 W/m² 0,0 km/h (0 Bft) 97,82 %
09.11.2025 06:00 10,5 °C 9,8 °C 6,5 °C 99 % 1016,4 hPa 0,0 l/m² 0,00 h 0,00 h 0 W/m² 0,0 km/h (0 Bft) 97,16 %
09.11.2025 07:00 10,8 °C 10,0 °C 6,7 °C 99 % 1016,8 hPa 0,2 l/m² 0,00 h 0,03 h 4 W/m² 2,4 km/h (1 Bft) 96,32 %
09.11.2025 08:00 10,9 °C 10,1 °C 6,7 °C 99 % 1017,4 hPa 0,0 l/m² 0,00 h 0,00 h 9 W/m² 1,9 km/h (1 Bft) 99,02 %
09.11.2025 09:00 11,0 °C 10,9 °C 7,2 °C 100 % 1017,7 hPa 0,0 l/m² 0,00 h 0,00 h 57 W/m² 4,1 km/h (1 Bft) 96,49 %
09.11.2025 10:00 11,4 °C 11,4 °C 7,8 °C 100 % 1018,0 hPa 0,0 l/m² 0,00 h 0,00 h 47 W/m² 2,7 km/h (1 Bft) 97,82 %
09.11.2025 11:00 11,6 °C 11,9 °C 8,0 °C 100 % 1018,0 hPa 0,0 l/m² 0,00 h 0,00 h 75 W/m² 2,5 km/h (1 Bft) 98,03 %
09.11.2025 12:00 12,3 °C 13,6 °C 9,2 °C 100 % 1017,7 hPa 0,0 l/m² 0,23 h 0,00 h 144 W/m² 7,5 km/h (2 Bft) 96,55 %
09.11.2025 13:00 12,2 °C 12,1 °C 8,5 °C 98 % 1017,7 hPa 0,0 l/m² 0,00 h 0,00 h 56 W/m² 6,4 km/h (2 Bft) 96,81 %
09.11.2025 14:00 12,6 °C 12,7 °C 8,9 °C 97 % 1017,6 hPa 0,2 l/m² 0,00 h 0,00 h 66 W/m² 2,9 km/h (1 Bft) 97,34 %
09.11.2025 15:00 12,7 °C 12,5 °C 8,8 °C 94 % 1017,4 hPa 0,0 l/m² 0,03 h 0,00 h 47 W/m² 2,7 km/h (1 Bft) 96,63 %
09.11.2025 16:00 12,5 °C 11,6 °C 7,8 °C 91 % 1017,4 hPa 0,0 l/m² 0,53 h 0,00 h 29 W/m² 0,9 km/h (0 Bft) 98,00 %
09.11.2025 17:00 11,4 °C 9,0 °C 5,6 °C 91 % 1017,7 hPa 0,0 l/m² 0,00 h 0,00 h 0 W/m² 0,0 km/h (0 Bft) 97,84 %
09.11.2025 18:00 9,8 °C 7,4 °C 4,3 °C 91 % 1018,1 hPa 0,0 l/m² 0,00 h 0,00 h 0 W/m² 0,0 km/h (0 Bft) 96,39 %
09.11.2025 19:00 8,8 °C 7,2 °C 3,9 °C 93 % 1018,3 hPa 0,0 l/m² 0,00 h 0,00 h 0 W/m² 0,3 km/h (0 Bft) 98,06 %
09.11.2025 20:00 8,4 °C 7,2 °C 3,8 °C 95 % 1018,3 hPa 0,0 l/m² 0,00 h 0,00 h 0 W/m² 0,7 km/h (0 Bft) 97,26 %
09.11.2025 21:00 8,0 °C 6,6 °C 3,4 °C 95 % 1018,3 hPa 0,0 l/m² 0,00 h 0,00 h 0 W/m² 0,8 km/h (0 Bft) 95,78 %
09.11.2025 22:00 6,8 °C 5,1 °C 2,2 °C 95 % 1018,1 hPa 0,0 l/m² 0,00 h 0,00 h 0 W/m² 0,1 km/h (0 Bft) 98,09 %
09.11.2025 23:00 6,6 °C 5,6 °C 2,8 °C 96 % 1017,9 hPa 0,0 l/m² 0,00 h 0,00 h 0 W/m² 1,5 km/h (1 Bft) 97,24 %
Min-Datum _ 08.11.25 08.11.25 08.11.25 05.11.25 06.11.25 - - - - 04.11.25 05.11.25
_ Min-Zeit 04:40 04:34 03:14 14:59 16:20 - - - - 02:58 21:32
Minimum _ 4,3 °C 3,3 °C 0,6 °C 66 % 1008,8 hPa - - - - 0,0 km/h (0 Bft) 20,00 %
Max-Datum _ 04.11.25 07.11.25 04.11.25 09.11.25 04.11.25 08.11.25 05.11.25 08.11.25 04.11.25 03.11.25 03.11.25
_ Max-Zeit 12:42 12:20 12:46 09:24 09:46 21:16 14:59 21:14 12:46 16:46 00:12
Maximum _ 17,2 °C 23,9 °C 12,2 °C 100 % 1021,1 hPa 0,7 l/m² 0,08 h 0,03 h 470 W/m² 57,9 km/h
S-SO (7 Bft)
100,00 %
Durchschnitt _ 10,6 °C 10,4 °C 6,2 °C 87 % 1015,3 hPa #1,4 l/m² #21:03 h #12 min. 121 W/m² 9,6 km/h (2 Bft) 97,28 %
© 2025 W. Hausmann